createdAt,value
2018-05-14T00:01:34.056Z,119.13
2018-05-14T00:04:03.218Z,139.40
2018-05-14T00:06:31.702Z,145.63
2018-05-14T00:09:00.126Z,146.30
2018-05-14T00:11:29.318Z,137.10
2018-05-14T00:13:58.549Z,130.70
2018-05-14T00:16:26.961Z,152.67
2018-05-14T00:18:55.550Z,140.80
2018-05-14T00:21:24.012Z,149.73
2018-05-14T00:23:52.435Z,152.90
2018-05-14T00:26:20.899Z,172.23
2018-05-14T00:28:49.330Z,162.37
2018-05-14T00:31:18.498Z,166.30
2018-05-14T00:33:46.903Z,169.00
2018-05-14T00:36:15.310Z,153.20
2018-05-14T00:38:44.557Z,183.37
2018-05-14T00:41:12.971Z,167.40
2018-05-14T00:43:41.742Z,183.17
2018-05-14T00:46:10.910Z,173.47
2018-05-14T00:48:39.330Z,180.90
2018-05-14T00:51:07.779Z,167.57
2018-05-14T00:53:36.225Z,182.33
2018-05-14T00:56:04.954Z,182.63
2018-05-14T00:58:33.404Z,192.37
2018-05-14T01:01:01.917Z,195.33
2018-05-14T01:03:30.331Z,209.20
2018-05-14T01:05:58.761Z,198.90
2018-05-14T01:08:28.882Z,207.83
2018-05-14T01:10:58.066Z,203.50
2018-05-14T01:13:26.480Z,204.63
2018-05-14T01:15:55.661Z,207.47
2018-05-14T01:18:24.108Z,222.03
2018-05-14T01:20:53.376Z,261.10
2018-05-14T01:23:21.820Z,258.57
2018-05-14T01:25:50.242Z,231.40
2018-05-14T01:28:18.695Z,258.93
2018-05-14T01:30:47.895Z,216.30
2018-05-14T01:33:16.306Z,246.07
2018-05-14T01:35:44.815Z,231.03
2018-05-14T01:38:13.262Z,202.07
2018-05-14T01:40:42.445Z,199.47
2018-05-14T01:43:10.849Z,212.97
2018-05-14T01:45:40.037Z,207.87
2018-05-14T01:48:08.439Z,207.60
2018-05-14T01:50:37.714Z,193.30
2018-05-14T01:53:06.137Z,222.57
2018-05-14T01:55:34.609Z,272.97
2018-05-14T01:58:03.791Z,274.07
2018-05-14T02:00:32.230Z,248.30
2018-05-14T02:03:00.654Z,235.57
2018-05-14T02:05:29.263Z,205.07
2018-05-14T02:07:58.473Z,184.73
2018-05-14T02:10:27.638Z,202.40
2018-05-14T02:12:56.039Z,178.50
2018-05-14T02:15:24.451Z,182.07
2018-05-14T02:20:29.917Z,154.57
2018-05-14T02:22:59.299Z,163.57
2018-05-14T02:25:27.745Z,166.53
2018-05-14T02:27:56.139Z,158.47
2018-05-14T02:30:25.314Z,160.60
2018-05-14T02:32:53.746Z,145.07
2018-05-14T02:35:22.189Z,157.37
2018-05-14T02:37:50.631Z,144.57
2018-05-14T02:40:19.102Z,157.30
2018-05-14T02:42:48.286Z,145.80
2018-05-14T02:45:16.727Z,150.83
2018-05-14T02:47:45.124Z,142.53
2018-05-14T02:50:13.606Z,142.60
2018-05-14T02:52:42.090Z,152.47
2018-05-14T02:55:10.508Z,139.23
2018-05-14T02:57:39.000Z,131.60
2018-05-14T03:00:07.544Z,136.97
2018-05-14T03:02:35.959Z,129.13
2018-05-14T03:05:04.379Z,127.10
2018-05-14T03:07:33.534Z,128.07
2018-05-14T03:10:02.733Z,137.13
2018-05-14T03:12:31.121Z,131.80
2018-05-14T03:15:00.294Z,122.20
2018-05-14T03:17:28.812Z,124.43
2018-05-14T03:19:57.240Z,113.73
2018-05-14T03:22:25.720Z,119.07
2018-05-14T03:24:54.879Z,122.33
2018-05-14T03:27:23.294Z,136.20
2018-05-14T03:29:51.690Z,129.57
2018-05-14T03:32:20.926Z,127.53
2018-05-14T03:34:49.340Z,141.47
2018-05-14T03:37:17.787Z,119.83
2018-05-14T03:39:46.212Z,129.60
2018-05-14T03:42:14.705Z,116.20
2018-05-14T03:44:43.158Z,120.27
2018-05-14T03:47:11.548Z,125.90
2018-05-14T03:49:39.947Z,98.30
2018-05-14T03:52:08.390Z,115.37
2018-05-14T03:54:36.798Z,105.33
2018-05-14T03:57:05.235Z,119.97
2018-05-14T03:59:51.858Z,110.93
2018-05-14T04:02:37.950Z,103.93
2018-05-14T04:05:19.616Z,114.50
2018-05-14T04:07:48.809Z,104.70
2018-05-14T04:10:17.995Z,118.53
2018-05-14T04:12:46.428Z,125.00
2018-05-14T04:15:14.829Z,110.70
2018-05-14T04:17:43.299Z,123.93
2018-05-14T04:20:11.709Z,123.27
2018-05-14T04:22:40.138Z,118.67
2018-05-14T04:25:08.560Z,112.83
2018-05-14T04:27:37.046Z,114.80
2018-05-14T04:30:05.506Z,103.33
2018-05-14T04:32:33.926Z,128.63
2018-05-14T04:35:02.343Z,103.07
2018-05-14T04:37:30.768Z,115.40
2018-05-14T04:39:59.194Z,105.20
2018-05-14T04:42:27.613Z,116.13
2018-05-14T04:44:56.051Z,104.57
2018-05-14T04:47:24.486Z,119.77
2018-05-14T04:49:52.922Z,117.90
2018-05-14T04:52:21.428Z,125.83
2018-05-14T04:54:50.632Z,103.80
2018-05-14T04:57:19.827Z,113.40
2018-05-14T04:59:48.270Z,98.80
2018-05-14T05:02:16.700Z,110.43
2018-05-14T05:04:45.193Z,95.33
2018-05-14T05:07:14.434Z,88.80
2018-05-14T05:09:42.867Z,86.33
2018-05-14T05:12:11.281Z,81.90
2018-05-14T05:14:39.703Z,82.60
2018-05-14T05:17:08.934Z,77.30
2018-05-14T05:19:37.303Z,78.57
2018-05-14T05:22:05.730Z,73.63
2018-05-14T05:24:34.225Z,77.13
2018-05-14T05:27:02.650Z,72.47
2018-05-14T05:29:31.067Z,76.20
2018-05-14T05:32:00.258Z,66.30
2018-05-14T05:34:28.682Z,80.57
2018-05-14T05:36:57.166Z,79.97
2018-05-14T05:39:25.585Z,73.50
2018-05-14T05:41:54.029Z,76.50
2018-05-14T05:44:22.462Z,75.63
2018-05-14T05:46:50.852Z,73.80
2018-05-14T05:49:19.285Z,79.17
2018-05-14T05:51:47.773Z,78.83
2018-05-14T05:54:16.934Z,87.00
2018-05-14T05:56:45.328Z,74.57
2018-05-14T05:59:14.513Z,84.73
2018-05-14T06:01:42.911Z,76.20
2018-05-14T06:04:12.155Z,73.10
2018-05-14T06:06:40.609Z,69.27
2018-05-14T06:09:09.791Z,74.87
2018-05-14T06:11:38.189Z,78.20
2018-05-14T06:14:07.367Z,84.60
2018-05-14T06:16:35.762Z,85.37
2018-05-14T06:19:05.007Z,81.63
2018-05-14T06:21:33.860Z,72.13
2018-05-14T06:24:03.030Z,84.60
2018-05-14T06:26:31.437Z,81.30
2018-05-14T06:28:59.845Z,72.57
2018-05-14T06:31:29.069Z,75.10
2018-05-14T06:33:57.456Z,75.50
2018-05-14T06:36:25.842Z,75.30
2018-05-14T06:38:54.283Z,69.07
2018-05-14T06:41:23.438Z,67.87
2018-05-14T06:43:51.863Z,67.67
2018-05-14T06:46:20.322Z,74.40
2018-05-14T06:48:48.788Z,70.87
2018-05-14T06:51:17.183Z,69.37
2018-05-14T06:53:46.378Z,66.27
2018-05-14T06:56:14.771Z,68.97
2018-05-14T06:58:43.201Z,71.37
2018-05-14T07:01:11.605Z,75.17
2018-05-14T07:03:40.029Z,63.00
2018-05-14T07:06:08.401Z,68.50
2018-05-14T07:08:37.639Z,63.40
2018-05-14T07:11:06.038Z,65.97
2018-05-14T07:13:35.186Z,70.07
2018-05-14T07:16:03.618Z,63.73
2018-05-14T07:18:32.779Z,61.00
2018-05-14T07:21:01.200Z,63.93
2018-05-14T07:23:30.519Z,63.80
2018-05-14T07:25:59.700Z,63.00
2018-05-14T07:28:28.123Z,68.10
2018-05-14T07:30:56.509Z,66.37
2018-05-14T07:33:24.921Z,61.80
2018-05-14T07:35:53.302Z,61.77
2018-05-14T07:38:21.728Z,66.53
2018-05-14T07:40:50.890Z,63.20
2018-05-14T07:43:19.294Z,66.57
2018-05-14T07:45:47.704Z,65.13
2018-05-14T07:48:16.897Z,59.87
2018-05-14T07:50:46.045Z,64.30
2018-05-14T07:53:14.498Z,55.40
2018-05-14T07:55:42.939Z,59.53
2018-05-14T07:58:11.394Z,58.53
2018-05-14T08:00:39.775Z,58.03
2018-05-14T08:03:08.145Z,54.40
2018-05-14T08:05:36.802Z,57.87
2018-05-14T08:08:05.145Z,59.63
2018-05-14T08:10:33.579Z,52.23
2018-05-14T08:13:02.752Z,53.87
2018-05-14T08:15:31.164Z,48.97
2018-05-14T08:18:00.341Z,53.17
2018-05-14T08:20:28.771Z,55.47
2018-05-14T08:22:57.210Z,53.57
2018-05-14T08:25:25.621Z,54.37
2018-05-14T08:27:54.865Z,54.23
2018-05-14T08:30:23.271Z,59.27
2018-05-14T08:32:51.655Z,54.90
2018-05-14T08:35:20.081Z,61.30
2018-05-14T08:37:48.590Z,62.50
2018-05-14T08:40:17.813Z,52.37
2018-05-14T08:42:46.231Z,54.97
2018-05-14T08:45:15.389Z,52.60
2018-05-14T08:47:43.794Z,53.57
2018-05-14T08:50:12.186Z,51.00
2018-05-14T08:52:40.595Z,50.73
2018-05-14T08:55:09.775Z,48.50
2018-05-14T08:57:38.216Z,48.37
2018-05-14T09:00:06.565Z,51.07
2018-05-14T09:02:34.950Z,50.50
2018-05-14T09:05:03.378Z,49.20
2018-05-14T09:07:31.835Z,48.17
2018-05-14T09:10:00.249Z,46.27
2018-05-14T09:12:28.622Z,47.53
2018-05-14T09:14:57.785Z,46.93
2018-05-14T09:17:26.184Z,47.97
2018-05-14T09:19:54.591Z,49.40
2018-05-14T09:22:22.979Z,49.80
2018-05-14T09:24:51.363Z,48.47
2018-05-14T09:27:19.774Z,48.27
2018-05-14T09:29:48.178Z,42.63
2018-05-14T09:32:17.357Z,40.60
2018-05-14T09:34:45.750Z,41.20
2018-05-14T09:37:14.977Z,44.93
2018-05-14T09:39:43.380Z,40.67
2018-05-14T09:42:11.820Z,44.70
2018-05-14T09:44:41.419Z,41.43
2018-05-14T09:47:09.818Z,42.13
2018-05-14T09:49:39.246Z,43.43
2018-05-14T09:52:07.716Z,42.07
2018-05-14T09:54:36.907Z,44.17
2018-05-14T09:57:06.083Z,45.57
2018-05-14T09:59:34.533Z,44.37
2018-05-14T10:02:03.101Z,43.03
2018-05-14T10:04:32.497Z,43.70
2018-05-14T10:07:01.668Z,42.77
2018-05-14T10:09:30.890Z,42.80
2018-05-14T10:12:00.146Z,42.83
2018-05-14T10:14:29.365Z,42.50
2018-05-14T10:16:57.721Z,40.90
2018-05-14T10:19:26.150Z,39.63
2018-05-14T10:21:54.553Z,43.40
2018-05-14T10:24:23.742Z,42.93
2018-05-14T10:26:52.931Z,43.47
2018-05-14T10:29:21.330Z,42.60
2018-05-14T10:31:49.762Z,44.80
2018-05-14T10:34:18.163Z,42.33
2018-05-14T10:36:46.600Z,46.70
2018-05-14T10:39:15.801Z,43.20
2018-05-14T10:41:44.994Z,43.53
2018-05-14T10:44:14.170Z,44.40
2018-05-14T10:46:42.827Z,45.73
2018-05-14T10:49:11.208Z,47.33
2018-05-14T10:51:39.623Z,45.63
2018-05-14T10:54:08.046Z,44.67
2018-05-14T10:56:36.479Z,44.97
2018-05-14T10:59:04.955Z,43.07
2018-05-14T11:01:33.345Z,44.10
2018-05-14T11:04:01.866Z,41.67
2018-05-14T11:06:30.258Z,44.37
2018-05-14T11:08:59.422Z,41.73
2018-05-14T11:11:27.847Z,43.10
2018-05-14T11:13:57.030Z,42.13
2018-05-14T11:16:25.434Z,44.30
2018-05-14T11:18:54.893Z,42.87
2018-05-14T11:21:23.339Z,41.93
2018-05-14T11:23:51.750Z,38.80
2018-05-14T11:26:20.141Z,40.23
2018-05-14T11:28:48.521Z,41.87
2018-05-14T11:31:17.681Z,42.70
2018-05-14T11:33:46.829Z,41.03
2018-05-14T11:36:15.210Z,39.63
2018-05-14T11:38:44.365Z,36.20
2018-05-14T11:41:13.510Z,40.53
2018-05-14T11:43:41.900Z,39.37
2018-05-14T11:46:10.311Z,35.63
2018-05-14T11:48:38.718Z,37.23
2018-05-14T11:51:07.113Z,36.43
2018-05-14T11:53:35.534Z,36.00
2018-05-14T11:56:04.694Z,35.67
2018-05-14T11:58:33.121Z,37.27
2018-05-14T12:01:02.285Z,31.63
2018-05-14T12:03:30.669Z,34.40
2018-05-14T12:05:59.058Z,33.30
2018-05-14T12:08:27.505Z,32.30
2018-05-14T12:10:56.677Z,32.37
2018-05-14T12:13:25.099Z,34.00
2018-05-14T12:15:54.336Z,32.13
2018-05-14T12:18:22.720Z,30.47
2018-05-14T12:20:51.108Z,30.57
2018-05-14T12:23:19.514Z,30.03
2018-05-14T12:25:47.951Z,27.77
2018-05-14T12:28:16.314Z,28.93
2018-05-14T12:30:45.465Z,27.17
2018-05-14T12:33:13.909Z,28.90
2018-05-14T12:35:43.050Z,25.93
2018-05-14T12:38:11.436Z,28.63
2018-05-14T12:40:39.893Z,25.83
2018-05-14T12:43:08.265Z,24.23
2018-05-14T12:45:36.661Z,22.23
2018-05-14T12:48:05.033Z,22.03
2018-05-14T12:50:33.502Z,22.70
2018-05-14T12:53:02.681Z,20.93
2018-05-14T12:55:31.081Z,18.73
2018-05-14T12:58:00.290Z,16.57
2018-05-14T13:00:29.542Z,15.20
2018-05-14T13:02:58.086Z,18.07
2018-05-14T13:05:26.458Z,14.63
2018-05-14T13:07:54.847Z,17.60
2018-05-14T13:10:23.977Z,13.80
2018-05-14T13:12:52.387Z,13.20
2018-05-14T13:15:21.551Z,15.07
2018-05-14T13:17:49.923Z,12.30
2018-05-14T13:20:19.095Z,12.90
2018-05-14T13:22:47.578Z,11.10
2018-05-14T13:25:16.006Z,10.33
2018-05-14T13:27:44.417Z,12.97
2018-05-14T13:30:12.798Z,11.63
2018-05-14T13:32:42.026Z,11.53
2018-05-14T13:35:10.400Z,11.77
2018-05-14T13:37:38.809Z,11.80
2018-05-14T13:40:07.251Z,15.73
2018-05-14T13:42:35.860Z,10.90
2018-05-14T13:45:04.249Z,11.37
2018-05-14T13:47:32.634Z,9.80
2018-05-14T13:50:01.006Z,9.37
2018-05-14T13:52:29.474Z,12.07
2018-05-14T13:54:57.948Z,9.50
2018-05-14T13:57:26.497Z,8.90
2018-05-14T13:59:54.815Z,8.73
2018-05-14T14:02:23.207Z,7.70
2018-05-14T14:04:51.748Z,8.60
2018-05-14T14:07:20.198Z,9.17
2018-05-14T14:09:48.608Z,9.87
2018-05-14T14:12:16.978Z,7.63
2018-05-14T14:14:45.351Z,7.07
2018-05-14T14:17:13.721Z,8.03
2018-05-14T14:19:42.106Z,8.10
2018-05-14T14:22:10.480Z,9.50
2018-05-14T14:24:38.863Z,6.90
2018-05-14T14:27:08.173Z,7.10
2018-05-14T14:29:36.570Z,8.23
2018-05-14T14:32:04.994Z,6.97
2018-05-14T14:34:34.149Z,13.00
2018-05-14T14:37:02.566Z,6.97
2018-05-14T14:39:30.974Z,8.00
2018-05-14T14:42:00.228Z,6.70
2018-05-14T14:44:29.331Z,12.37
2018-05-14T14:46:57.737Z,6.73
2018-05-14T14:49:26.234Z,8.10
2018-05-14T14:51:55.389Z,7.33
2018-05-14T14:54:23.794Z,5.73
2018-05-14T14:56:52.189Z,7.47
2018-05-14T14:59:20.596Z,6.50
2018-05-14T15:01:48.982Z,8.13
2018-05-14T15:04:17.352Z,8.93
2018-05-14T15:06:46.518Z,7.70
2018-05-14T15:09:14.898Z,6.97
2018-05-14T15:11:43.285Z,7.00
2018-05-14T15:14:11.712Z,7.30
2018-05-14T15:16:40.091Z,5.43
2018-05-14T15:19:09.270Z,5.10
2018-05-14T15:21:37.649Z,6.40
2018-05-14T15:24:06.098Z,7.23
2018-05-14T15:26:34.409Z,10.17
2018-05-14T15:29:02.803Z,6.57
2018-05-14T15:31:31.353Z,5.37
2018-05-14T15:33:59.742Z,6.80
2018-05-14T15:36:28.121Z,5.53
2018-05-14T15:38:56.494Z,7.83
2018-05-14T15:41:24.948Z,6.90
2018-05-14T15:43:53.298Z,5.20
2018-05-14T15:46:21.818Z,5.40
2018-05-14T15:48:50.982Z,4.83
2018-05-14T15:51:19.377Z,4.60
2018-05-14T15:53:47.757Z,7.57
2018-05-14T15:56:16.171Z,5.03
2018-05-14T15:58:44.530Z,5.47
2018-05-14T16:01:13.712Z,7.03
2018-05-14T16:03:42.110Z,7.37
2018-05-14T16:06:10.530Z,5.83
2018-05-14T16:08:38.905Z,5.07
2018-05-14T16:11:07.273Z,5.60
2018-05-14T16:13:36.567Z,5.67
2018-05-14T16:16:04.946Z,5.10
2018-05-14T16:18:34.113Z,5.20
2018-05-14T16:21:02.511Z,6.30
2018-05-14T16:23:30.886Z,6.23
2018-05-14T16:25:59.282Z,7.60
2018-05-14T16:28:27.682Z,6.03
2018-05-14T16:30:56.118Z,7.20
2018-05-14T16:33:24.611Z,10.00
2018-05-14T16:35:52.905Z,7.23
2018-05-14T16:38:22.068Z,6.97
2018-05-14T16:40:50.435Z,4.90
2018-05-14T16:43:19.602Z,7.70
2018-05-14T16:45:47.990Z,5.40
2018-05-14T16:48:16.427Z,5.33
2018-05-14T16:50:44.808Z,4.90
2018-05-14T16:53:13.226Z,7.50
2018-05-14T16:55:41.623Z,5.77
2018-05-14T16:58:10.022Z,5.80
2018-05-14T17:00:38.470Z,12.03
2018-05-14T17:03:06.851Z,11.30
2018-05-14T17:05:35.245Z,5.20
2018-05-14T17:08:03.638Z,5.73
2018-05-14T17:10:32.033Z,5.90
2018-05-14T17:13:00.410Z,9.63
2018-05-14T17:15:28.817Z,6.10
2018-05-14T17:17:58.000Z,5.47
2018-05-14T17:20:26.438Z,9.90
2018-05-14T17:22:54.838Z,8.30
2018-05-14T17:25:23.213Z,6.80
2018-05-14T17:27:51.623Z,7.90
2018-05-14T17:30:20.021Z,6.37
2018-05-14T17:32:48.439Z,4.80
2018-05-14T17:35:16.845Z,5.07
2018-05-14T17:37:45.323Z,6.00
2018-05-14T17:40:13.725Z,4.90
2018-05-14T17:42:42.126Z,6.57
2018-05-14T17:45:10.541Z,11.10
2018-05-14T17:47:39.732Z,6.77
2018-05-14T17:50:08.110Z,6.07
2018-05-14T17:52:36.522Z,8.77
2018-05-14T17:55:05.709Z,6.80
2018-05-14T17:57:34.899Z,6.47
2018-05-14T18:00:03.337Z,9.10
2018-05-14T18:02:31.706Z,6.73
2018-05-14T18:05:00.227Z,5.03
2018-05-14T18:07:28.611Z,4.93
2018-05-14T18:09:57.090Z,5.53
2018-05-14T18:12:25.486Z,5.10
2018-05-14T18:14:53.885Z,8.07
2018-05-14T18:17:22.398Z,5.80
2018-05-14T18:19:56.194Z,6.77
2018-05-14T18:22:26.342Z,6.23
2018-05-14T18:25:00.300Z,6.13
2018-05-14T18:27:31.935Z,5.30
2018-05-14T18:30:06.583Z,6.20
2018-05-14T18:32:34.968Z,6.03
2018-05-14T18:35:08.913Z,6.50
2018-05-14T18:37:38.079Z,5.20
2018-05-14T18:40:06.465Z,6.70
2018-05-14T18:42:34.929Z,6.80
2018-05-14T18:45:03.332Z,8.33
2018-05-14T18:47:32.550Z,12.20
2018-05-14T18:50:00.966Z,5.73
2018-05-14T18:52:29.353Z,9.73
2018-05-14T18:54:57.771Z,7.13
2018-05-14T18:57:26.221Z,9.67
2018-05-14T18:59:54.618Z,6.53
2018-05-14T19:02:23.049Z,6.83
2018-05-14T19:04:51.451Z,6.50
2018-05-14T19:07:20.625Z,7.57
2018-05-14T19:09:49.025Z,11.00
2018-05-14T19:12:18.214Z,9.40
2018-05-14T19:14:52.228Z,8.17
2018-05-14T19:17:25.981Z,6.50
2018-05-14T19:19:54.430Z,12.90
2018-05-14T19:22:29.048Z,8.30
2018-05-14T19:24:57.457Z,8.40
2018-05-14T19:27:26.646Z,7.20
2018-05-14T19:29:55.890Z,7.63
2018-05-14T19:32:24.402Z,10.50
2018-05-14T19:37:56.479Z,6.10
2018-05-14T19:40:30.338Z,7.90
2018-05-14T19:42:58.749Z,6.80
2018-05-14T19:45:27.176Z,6.83
2018-05-14T19:47:56.363Z,6.47
2018-05-14T19:50:24.857Z,9.70
2018-05-14T19:52:53.276Z,16.93
2018-05-14T19:55:21.738Z,7.63
2018-05-14T19:57:50.108Z,7.40
2018-05-14T20:00:18.501Z,7.77
2018-05-14T20:02:47.681Z,10.73
2018-05-14T20:05:16.079Z,6.30
2018-05-14T20:07:44.495Z,7.13
2018-05-14T20:10:13.231Z,6.20
2018-05-14T20:12:41.642Z,8.37
2018-05-14T20:15:10.831Z,8.10
2018-05-14T20:17:39.219Z,6.23
2018-05-14T20:20:07.735Z,9.03
2018-05-14T20:22:36.154Z,6.80
2018-05-14T20:25:05.323Z,7.43
2018-05-14T20:27:34.531Z,7.77
2018-05-14T20:30:02.918Z,10.13
2018-05-14T20:32:31.370Z,7.87
2018-05-14T20:34:59.794Z,7.10
2018-05-14T20:37:28.274Z,7.10
2018-05-14T20:39:56.678Z,10.40
2018-05-14T20:42:25.079Z,10.83
2018-05-14T20:44:53.562Z,8.23
2018-05-14T20:47:21.945Z,6.60
2018-05-14T20:49:50.365Z,7.00
2018-05-14T20:52:19.546Z,9.47
2018-05-14T20:54:48.031Z,11.47
2018-05-14T20:57:16.465Z,13.03
2018-05-14T20:59:44.960Z,11.00
2018-05-14T21:02:14.180Z,9.90
2018-05-14T21:04:42.570Z,10.03
2018-05-14T21:07:10.954Z,9.70
2018-05-14T21:09:39.358Z,6.30
2018-05-14T21:12:07.835Z,6.73
2018-05-14T21:14:36.353Z,7.30
2018-05-14T21:17:04.667Z,9.03
2018-05-14T21:19:33.058Z,9.60
2018-05-14T21:22:01.629Z,7.00
2018-05-14T21:24:30.027Z,10.87
2018-05-14T21:26:58.469Z,8.07
2018-05-14T21:29:27.618Z,12.83
2018-05-14T21:31:55.998Z,9.73
2018-05-14T21:34:24.402Z,6.50
2018-05-14T21:36:52.778Z,8.50
2018-05-14T21:39:21.178Z,6.47
2018-05-14T21:41:50.329Z,5.93
2018-05-14T21:44:18.722Z,7.83
2018-05-14T21:46:47.135Z,6.97
2018-05-14T21:49:16.293Z,6.70
2018-05-14T21:51:44.661Z,6.37
2018-05-14T21:54:13.074Z,7.00
2018-05-14T21:56:41.483Z,9.40
2018-05-14T21:59:09.859Z,13.57
2018-05-14T22:01:38.346Z,6.63
2018-05-14T22:04:07.565Z,8.10
2018-05-14T22:06:35.957Z,8.97
2018-05-14T22:09:04.335Z,10.53
2018-05-14T22:11:32.751Z,9.83
2018-05-14T22:14:01.258Z,14.23
2018-05-14T22:16:29.648Z,17.83
2018-05-14T22:18:58.031Z,8.63
2018-05-14T22:21:26.417Z,12.07
2018-05-14T22:23:54.793Z,13.00
2018-05-14T22:26:23.194Z,11.70
2018-05-14T22:28:51.639Z,8.73
2018-05-14T22:31:20.029Z,14.43
2018-05-14T22:33:48.418Z,7.53
2018-05-14T22:36:17.244Z,10.23
2018-05-14T22:38:45.723Z,9.20
2018-05-14T22:41:14.265Z,15.40
2018-05-14T22:43:42.709Z,7.37
2018-05-14T22:46:11.086Z,7.37
2018-05-14T22:48:39.477Z,10.33
2018-05-14T22:51:07.882Z,6.27
2018-05-14T22:53:37.042Z,9.23
2018-05-14T22:56:05.430Z,10.53
2018-05-14T22:58:33.879Z,8.00
2018-05-14T23:01:02.288Z,7.97
2018-05-14T23:03:30.708Z,9.03
2018-05-14T23:05:59.914Z,8.37
2018-05-14T23:08:29.092Z,7.30
2018-05-14T23:10:57.461Z,7.03
2018-05-14T23:13:25.866Z,7.23
2018-05-14T23:15:54.243Z,6.50
2018-05-14T23:18:22.632Z,7.37
2018-05-14T23:20:51.036Z,6.03
2018-05-14T23:23:20.197Z,10.03
2018-05-14T23:25:48.602Z,7.40
2018-05-14T23:28:17.027Z,6.10
2018-05-14T23:30:45.439Z,12.07
2018-05-14T23:33:13.865Z,6.70
2018-05-14T23:35:43.138Z,6.90
2018-05-14T23:38:12.281Z,13.30
2018-05-14T23:40:41.497Z,6.60
2018-05-14T23:43:09.874Z,9.43
2018-05-14T23:45:38.255Z,9.70
2018-05-14T23:48:07.419Z,7.10
2018-05-14T23:50:35.894Z,6.13
2018-05-14T23:53:05.709Z,8.10
2018-05-14T23:55:34.102Z,6.60
2018-05-14T23:58:02.485Z,6.63
